sensor_id;sensor_type;location;lat;lon;timestamp;P1;durP1;ratioP1;P2;durP2;ratioP2
65459;SDS011;52058;49.822;6.754;2023-07-30T00:00:28;1.83;;;1.60;;
65459;SDS011;52058;49.822;6.754;2023-07-30T00:02:55;2.60;;;1.83;;
65459;SDS011;52058;49.822;6.754;2023-07-30T00:05:22;3.83;;;1.50;;
65459;SDS011;52058;49.822;6.754;2023-07-30T00:07:49;1.65;;;1.48;;
65459;SDS011;52058;49.822;6.754;2023-07-30T00:10:17;1.92;;;1.55;;
65459;SDS011;52058;49.822;6.754;2023-07-30T00:12:43;3.47;;;1.85;;
65459;SDS011;52058;49.822;6.754;2023-07-30T00:15:10;4.35;;;1.60;;
65459;SDS011;52058;49.822;6.754;2023-07-30T00:17:38;2.72;;;1.85;;
65459;SDS011;52058;49.822;6.754;2023-07-30T00:20:05;2.63;;;1.40;;
65459;SDS011;52058;49.822;6.754;2023-07-30T00:22:33;2.88;;;1.88;;
65459;SDS011;52058;49.822;6.754;2023-07-30T00:24:59;2.53;;;1.80;;
65459;SDS011;52058;49.822;6.754;2023-07-30T00:27:27;5.60;;;1.70;;
65459;SDS011;52058;49.822;6.754;2023-07-30T00:29:54;1.95;;;1.60;;
65459;SDS011;52058;49.822;6.754;2023-07-30T00:32:20;2.83;;;1.80;;
65459;SDS011;52058;49.822;6.754;2023-07-30T00:34:47;2.30;;;1.70;;
65459;SDS011;52058;49.822;6.754;2023-07-30T00:37:13;2.58;;;1.77;;
65459;SDS011;52058;49.822;6.754;2023-07-30T00:39:40;2.90;;;1.75;;
65459;SDS011;52058;49.822;6.754;2023-07-30T00:42:06;2.72;;;1.65;;
65459;SDS011;52058;49.822;6.754;2023-07-30T00:44:34;3.03;;;1.58;;
65459;SDS011;52058;49.822;6.754;2023-07-30T00:47:01;2.28;;;2.00;;
65459;SDS011;52058;49.822;6.754;2023-07-30T00:49:28;3.72;;;1.95;;
65459;SDS011;52058;49.822;6.754;2023-07-30T00:51:55;4.00;;;1.77;;
65459;SDS011;52058;49.822;6.754;2023-07-30T00:54:22;1.83;;;1.70;;
65459;SDS011;52058;49.822;6.754;2023-07-30T00:56:50;5.43;;;1.80;;
65459;SDS011;52058;49.822;6.754;2023-07-30T00:59:18;2.55;;;2.00;;
65459;SDS011;52058;49.822;6.754;2023-07-30T01:01:46;2.10;;;1.65;;
65459;SDS011;52058;49.822;6.754;2023-07-30T01:04:13;2.05;;;1.73;;
65459;SDS011;52058;49.822;6.754;2023-07-30T01:06:40;3.13;;;1.73;;
65459;SDS011;52058;49.822;6.754;2023-07-30T01:09:07;4.10;;;1.90;;
65459;SDS011;52058;49.822;6.754;2023-07-30T01:11:33;1.70;;;1.50;;
65459;SDS011;52058;49.822;6.754;2023-07-30T01:14:01;2.92;;;1.83;;
65459;SDS011;52058;49.822;6.754;2023-07-30T01:16:28;4.75;;;2.00;;
65459;SDS011;52058;49.822;6.754;2023-07-30T01:18:56;3.58;;;2.00;;
65459;SDS011;52058;49.822;6.754;2023-07-30T01:21:25;2.53;;;1.80;;
65459;SDS011;52058;49.822;6.754;2023-07-30T01:23:52;3.00;;;1.73;;
65459;SDS011;52058;49.822;6.754;2023-07-30T01:26:19;2.20;;;1.70;;
65459;SDS011;52058;49.822;6.754;2023-07-30T01:28:51;3.30;;;1.90;;
65459;SDS011;52058;49.822;6.754;2023-07-30T01:31:20;3.53;;;1.88;;
65459;SDS011;52058;49.822;6.754;2023-07-30T01:33:50;2.28;;;1.80;;
65459;SDS011;52058;49.822;6.754;2023-07-30T01:36:20;3.40;;;2.05;;
65459;SDS011;52058;49.822;6.754;2023-07-30T01:38:49;4.13;;;1.80;;
65459;SDS011;52058;49.822;6.754;2023-07-30T01:41:17;2.83;;;1.90;;
65459;SDS011;52058;49.822;6.754;2023-07-30T01:43:43;1.92;;;1.63;;
65459;SDS011;52058;49.822;6.754;2023-07-30T01:46:10;3.42;;;1.67;;
65459;SDS011;52058;49.822;6.754;2023-07-30T01:48:36;2.78;;;1.70;;
65459;SDS011;52058;49.822;6.754;2023-07-30T01:51:03;2.30;;;1.90;;
65459;SDS011;52058;49.822;6.754;2023-07-30T01:53:29;3.40;;;1.90;;
65459;SDS011;52058;49.822;6.754;2023-07-30T01:55:57;3.17;;;1.90;;
65459;SDS011;52058;49.822;6.754;2023-07-30T01:58:24;2.40;;;1.90;;
65459;SDS011;52058;49.822;6.754;2023-07-30T02:00:50;2.45;;;1.90;;
65459;SDS011;52058;49.822;6.754;2023-07-30T02:03:17;2.35;;;1.83;;
65459;SDS011;52058;49.822;6.754;2023-07-30T02:05:43;3.17;;;1.83;;
65459;SDS011;52058;49.822;6.754;2023-07-30T02:08:10;6.13;;;2.10;;
65459;SDS011;52058;49.822;6.754;2023-07-30T02:10:38;2.05;;;1.85;;
65459;SDS011;52058;49.822;6.754;2023-07-30T02:13:06;2.97;;;1.80;;
65459;SDS011;52058;49.822;6.754;2023-07-30T02:15:32;2.10;;;1.75;;
65459;SDS011;52058;49.822;6.754;2023-07-30T02:17:59;2.22;;;1.77;;
65459;SDS011;52058;49.822;6.754;2023-07-30T02:20:25;3.88;;;1.85;;
65459;SDS011;52058;49.822;6.754;2023-07-30T02:22:52;2.47;;;1.90;;
65459;SDS011;52058;49.822;6.754;2023-07-30T02:25:19;2.25;;;1.83;;
65459;SDS011;52058;49.822;6.754;2023-07-30T02:27:45;2.85;;;1.88;;
65459;SDS011;52058;49.822;6.754;2023-07-30T02:30:14;2.88;;;2.13;;
65459;SDS011;52058;49.822;6.754;2023-07-30T02:32:41;2.60;;;1.92;;
65459;SDS011;52058;49.822;6.754;2023-07-30T02:35:07;5.10;;;2.20;;
65459;SDS011;52058;49.822;6.754;2023-07-30T02:37:34;4.40;;;2.00;;
65459;SDS011;52058;49.822;6.754;2023-07-30T02:40:01;2.42;;;2.10;;
65459;SDS011;52058;49.822;6.754;2023-07-30T02:42:29;2.95;;;2.10;;
65459;SDS011;52058;49.822;6.754;2023-07-30T02:44:56;3.08;;;2.10;;
65459;SDS011;52058;49.822;6.754;2023-07-30T02:47:24;3.55;;;2.05;;
65459;SDS011;52058;49.822;6.754;2023-07-30T02:49:51;4.05;;;2.53;;
65459;SDS011;52058;49.822;6.754;2023-07-30T02:52:17;3.97;;;2.20;;
65459;SDS011;52058;49.822;6.754;2023-07-30T02:54:44;2.55;;;2.10;;
65459;SDS011;52058;49.822;6.754;2023-07-30T02:57:10;4.90;;;2.20;;
65459;SDS011;52058;49.822;6.754;2023-07-30T02:59:38;3.70;;;2.25;;
65459;SDS011;52058;49.822;6.754;2023-07-30T03:02:05;4.75;;;2.47;;
65459;SDS011;52058;49.822;6.754;2023-07-30T03:04:33;4.20;;;1.98;;
65459;SDS011;52058;49.822;6.754;2023-07-30T03:07:01;3.78;;;2.35;;
65459;SDS011;52058;49.822;6.754;2023-07-30T03:09:27;3.10;;;2.25;;
65459;SDS011;52058;49.822;6.754;2023-07-30T03:11:54;3.28;;;2.28;;
65459;SDS011;52058;49.822;6.754;2023-07-30T03:14:20;3.28;;;2.25;;
65459;SDS011;52058;49.822;6.754;2023-07-30T03:16:47;2.95;;;2.08;;
65459;SDS011;52058;49.822;6.754;2023-07-30T03:19:14;2.92;;;2.05;;
65459;SDS011;52058;49.822;6.754;2023-07-30T03:21:42;5.00;;;2.00;;
65459;SDS011;52058;49.822;6.754;2023-07-30T03:24:09;3.22;;;2.03;;
65459;SDS011;52058;49.822;6.754;2023-07-30T03:26:35;3.17;;;2.03;;
65459;SDS011;52058;49.822;6.754;2023-07-30T03:29:02;3.13;;;2.30;;
65459;SDS011;52058;49.822;6.754;2023-07-30T03:31:29;3.63;;;1.90;;
65459;SDS011;52058;49.822;6.754;2023-07-30T03:33:55;3.90;;;2.22;;
65459;SDS011;52058;49.822;6.754;2023-07-30T03:36:22;4.43;;;2.33;;
65459;SDS011;52058;49.822;6.754;2023-07-30T03:38:50;2.70;;;2.30;;
65459;SDS011;52058;49.822;6.754;2023-07-30T03:41:17;3.35;;;2.20;;
65459;SDS011;52058;49.822;6.754;2023-07-30T03:43:43;2.90;;;2.38;;
65459;SDS011;52058;49.822;6.754;2023-07-30T03:46:10;4.32;;;2.28;;
65459;SDS011;52058;49.822;6.754;2023-07-30T03:48:36;2.70;;;2.05;;
65459;SDS011;52058;49.822;6.754;2023-07-30T03:51:03;3.97;;;2.10;;
65459;SDS011;52058;49.822;6.754;2023-07-30T03:53:32;2.63;;;2.00;;
65459;SDS011;52058;49.822;6.754;2023-07-30T03:56:00;3.00;;;2.33;;
65459;SDS011;52058;49.822;6.754;2023-07-30T03:58:27;2.63;;;2.15;;
65459;SDS011;52058;49.822;6.754;2023-07-30T04:00:55;4.10;;;2.42;;
65459;SDS011;52058;49.822;6.754;2023-07-30T04:03:22;2.50;;;2.30;;
65459;SDS011;52058;49.822;6.754;2023-07-30T04:05:48;2.97;;;2.40;;
65459;SDS011;52058;49.822;6.754;2023-07-30T04:08:15;4.43;;;2.70;;
65459;SDS011;52058;49.822;6.754;2023-07-30T04:10:42;2.40;;;2.20;;
65459;SDS011;52058;49.822;6.754;2023-07-30T04:13:10;3.22;;;2.40;;
65459;SDS011;52058;49.822;6.754;2023-07-30T04:15:36;4.53;;;2.00;;
65459;SDS011;52058;49.822;6.754;2023-07-30T04:18:03;2.88;;;1.98;;
65459;SDS011;52058;49.822;6.754;2023-07-30T04:20:29;2.40;;;2.10;;
65459;SDS011;52058;49.822;6.754;2023-07-30T04:22:56;6.10;;;2.00;;
65459;SDS011;52058;49.822;6.754;2023-07-30T04:25:23;3.38;;;2.25;;
65459;SDS011;52058;49.822;6.754;2023-07-30T04:27:49;3.35;;;1.95;;
65459;SDS011;52058;49.822;6.754;2023-07-30T04:30:17;3.72;;;2.03;;
65459;SDS011;52058;49.822;6.754;2023-07-30T04:32:44;4.53;;;2.05;;
65459;SDS011;52058;49.822;6.754;2023-07-30T04:35:10;3.97;;;2.08;;
65459;SDS011;52058;49.822;6.754;2023-07-30T04:37:37;3.40;;;2.20;;
65459;SDS011;52058;49.822;6.754;2023-07-30T04:40:04;2.80;;;2.17;;
65459;SDS011;52058;49.822;6.754;2023-07-30T04:42:31;2.03;;;1.73;;
65459;SDS011;52058;49.822;6.754;2023-07-30T04:44:58;5.38;;;2.42;;
65459;SDS011;52058;49.822;6.754;2023-07-30T04:47:26;3.67;;;2.08;;
65459;SDS011;52058;49.822;6.754;2023-07-30T04:49:52;8.30;;;2.63;;
65459;SDS011;52058;49.822;6.754;2023-07-30T04:52:19;2.45;;;1.90;;
65459;SDS011;52058;49.822;6.754;2023-07-30T04:54:45;6.18;;;2.40;;
65459;SDS011;52058;49.822;6.754;2023-07-30T04:57:12;3.60;;;2.28;;
65459;SDS011;52058;49.822;6.754;2023-07-30T04:59:39;4.55;;;2.38;;
65459;SDS011;52058;49.822;6.754;2023-07-30T05:02:05;4.57;;;2.42;;
65459;SDS011;52058;49.822;6.754;2023-07-30T05:04:33;2.95;;;2.20;;
65459;SDS011;52058;49.822;6.754;2023-07-30T05:07:00;5.80;;;2.47;;
65459;SDS011;52058;49.822;6.754;2023-07-30T05:09:27;3.28;;;2.30;;
65459;SDS011;52058;49.822;6.754;2023-07-30T05:11:53;2.85;;;2.30;;
65459;SDS011;52058;49.822;6.754;2023-07-30T05:14:20;2.60;;;2.10;;
65459;SDS011;52058;49.822;6.754;2023-07-30T05:16:46;3.17;;;2.70;;
65459;SDS011;52058;49.822;6.754;2023-07-30T05:19:13;4.57;;;2.05;;
65459;SDS011;52058;49.822;6.754;2023-07-30T05:21:41;3.60;;;2.20;;
65459;SDS011;52058;49.822;6.754;2023-07-30T05:24:07;4.45;;;1.90;;
65459;SDS011;52058;49.822;6.754;2023-07-30T05:26:34;3.15;;;2.03;;
65459;SDS011;52058;49.822;6.754;2023-07-30T05:29:00;2.63;;;2.42;;
65459;SDS011;52058;49.822;6.754;2023-07-30T05:31:28;5.25;;;2.67;;
65459;SDS011;52058;49.822;6.754;2023-07-30T05:33:54;2.85;;;2.17;;
65459;SDS011;52058;49.822;6.754;2023-07-30T05:36:21;5.15;;;2.50;;
65459;SDS011;52058;49.822;6.754;2023-07-30T05:38:49;2.45;;;1.90;;
65459;SDS011;52058;49.822;6.754;2023-07-30T05:41:15;3.15;;;2.33;;
65459;SDS011;52058;49.822;6.754;2023-07-30T05:43:42;3.75;;;2.05;;
65459;SDS011;52058;49.822;6.754;2023-07-30T05:46:09;3.00;;;1.85;;
65459;SDS011;52058;49.822;6.754;2023-07-30T05:48:35;3.03;;;2.00;;
65459;SDS011;52058;49.822;6.754;2023-07-30T05:51:02;3.13;;;1.60;;
65459;SDS011;52058;49.822;6.754;2023-07-30T05:53:29;3.75;;;2.15;;
65459;SDS011;52058;49.822;6.754;2023-07-30T05:55:56;3.20;;;2.15;;
65459;SDS011;52058;49.822;6.754;2023-07-30T05:58:23;6.13;;;2.20;;
65459;SDS011;52058;49.822;6.754;2023-07-30T06:00:50;4.43;;;2.40;;
65459;SDS011;52058;49.822;6.754;2023-07-30T06:03:16;4.50;;;2.05;;
65459;SDS011;52058;49.822;6.754;2023-07-30T06:05:43;2.30;;;1.83;;
65459;SDS011;52058;49.822;6.754;2023-07-30T06:08:09;5.20;;;2.20;;
65459;SDS011;52058;49.822;6.754;2023-07-30T06:10:36;2.28;;;1.90;;
65459;SDS011;52058;49.822;6.754;2023-07-30T06:13:04;2.72;;;2.05;;
65459;SDS011;52058;49.822;6.754;2023-07-30T06:15:31;4.53;;;1.90;;
65459;SDS011;52058;49.822;6.754;2023-07-30T06:18:01;2.88;;;2.20;;
65459;SDS011;52058;49.822;6.754;2023-07-30T06:20:28;3.42;;;2.10;;
65459;SDS011;52058;49.822;6.754;2023-07-30T06:22:55;3.20;;;2.38;;
65459;SDS011;52058;49.822;6.754;2023-07-30T06:25:22;2.78;;;2.10;;
65459;SDS011;52058;49.822;6.754;2023-07-30T06:27:49;2.40;;;2.08;;
65459;SDS011;52058;49.822;6.754;2023-07-30T06:30:17;4.68;;;2.33;;
65459;SDS011;52058;49.822;6.754;2023-07-30T06:32:44;1.77;;;1.15;;
65459;SDS011;52058;49.822;6.754;2023-07-30T06:35:10;1.30;;;1.17;;
65459;SDS011;52058;49.822;6.754;2023-07-30T06:37:37;2.50;;;1.10;;
65459;SDS011;52058;49.822;6.754;2023-07-30T06:40:04;3.00;;;1.20;;
65459;SDS011;52058;49.822;6.754;2023-07-30T06:42:32;2.38;;;1.15;;
65459;SDS011;52058;49.822;6.754;2023-07-30T06:44:58;1.42;;;1.10;;
65459;SDS011;52058;49.822;6.754;2023-07-30T06:47:26;2.13;;;1.15;;
65459;SDS011;52058;49.822;6.754;2023-07-30T06:49:53;1.75;;;0.88;;
65459;SDS011;52058;49.822;6.754;2023-07-30T06:52:19;0.90;;;0.60;;
65459;SDS011;52058;49.822;6.754;2023-07-30T06:54:46;1.15;;;0.80;;
65459;SDS011;52058;49.822;6.754;2023-07-30T06:57:13;0.70;;;0.70;;
65459;SDS011;52058;49.822;6.754;2023-07-30T06:59:39;1.25;;;0.80;;
65459;SDS011;52058;49.822;6.754;2023-07-30T07:02:06;1.63;;;0.88;;
65459;SDS011;52058;49.822;6.754;2023-07-30T07:04:34;0.70;;;0.70;;
65459;SDS011;52058;49.822;6.754;2023-07-30T07:07:00;0.75;;;0.75;;
65459;SDS011;52058;49.822;6.754;2023-07-30T07:09:28;0.93;;;0.70;;
65459;SDS011;52058;49.822;6.754;2023-07-30T07:11:55;0.68;;;0.57;;
65459;SDS011;52058;49.822;6.754;2023-07-30T07:14:21;1.20;;;1.10;;
65459;SDS011;52058;49.822;6.754;2023-07-30T07:16:48;1.48;;;0.60;;
65459;SDS011;52058;49.822;6.754;2023-07-30T07:19:14;0.70;;;0.70;;
65459;SDS011;52058;49.822;6.754;2023-07-30T07:21:42;1.05;;;0.80;;
65459;SDS011;52058;49.822;6.754;2023-07-30T07:24:09;1.55;;;0.52;;
65459;SDS011;52058;49.822;6.754;2023-07-30T07:26:35;1.50;;;0.70;;
65459;SDS011;52058;49.822;6.754;2023-07-30T07:29:02;0.68;;;0.60;;
65459;SDS011;52058;49.822;6.754;2023-07-30T07:31:29;1.08;;;0.52;;
65459;SDS011;52058;49.822;6.754;2023-07-30T07:33:56;1.20;;;0.65;;
65459;SDS011;52058;49.822;6.754;2023-07-30T07:36:23;0.60;;;0.60;;
65459;SDS011;52058;49.822;6.754;2023-07-30T07:38:51;0.73;;;0.65;;
65459;SDS011;52058;49.822;6.754;2023-07-30T07:41:17;1.25;;;0.63;;
65459;SDS011;52058;49.822;6.754;2023-07-30T07:43:44;0.63;;;0.60;;
65459;SDS011;52058;49.822;6.754;2023-07-30T07:46:12;1.20;;;0.80;;
65459;SDS011;52058;49.822;6.754;2023-07-30T07:48:39;0.98;;;0.60;;
65459;SDS011;52058;49.822;6.754;2023-07-30T07:51:06;1.55;;;0.70;;
65459;SDS011;52058;49.822;6.754;2023-07-30T07:53:33;0.90;;;0.63;;
65459;SDS011;52058;49.822;6.754;2023-07-30T07:56:01;0.80;;;0.70;;
65459;SDS011;52058;49.822;6.754;2023-07-30T07:58:27;0.60;;;0.60;;
65459;SDS011;52058;49.822;6.754;2023-07-30T08:00:54;2.05;;;0.88;;
65459;SDS011;52058;49.822;6.754;2023-07-30T08:03:21;1.67;;;0.60;;
65459;SDS011;52058;49.822;6.754;2023-07-30T08:05:48;2.05;;;0.82;;
65459;SDS011;52058;49.822;6.754;2023-07-30T08:08:14;1.75;;;0.80;;
65459;SDS011;52058;49.822;6.754;2023-07-30T08:10:41;1.15;;;0.73;;
65459;SDS011;52058;49.822;6.754;2023-07-30T08:13:11;1.55;;;1.33;;
65459;SDS011;52058;49.822;6.754;2023-07-30T08:15:38;2.05;;;0.80;;
65459;SDS011;52058;49.822;6.754;2023-07-30T08:18:05;1.75;;;0.90;;
65459;SDS011;52058;49.822;6.754;2023-07-30T08:20:32;3.53;;;1.30;;
65459;SDS011;52058;49.822;6.754;2023-07-30T08:22:58;2.47;;;1.23;;
65459;SDS011;52058;49.822;6.754;2023-07-30T08:25:25;1.73;;;0.98;;
65459;SDS011;52058;49.822;6.754;2023-07-30T08:27:52;3.50;;;1.25;;
65459;SDS011;52058;49.822;6.754;2023-07-30T08:30:20;3.10;;;1.05;;
65459;SDS011;52058;49.822;6.754;2023-07-30T08:32:46;2.97;;;1.27;;
65459;SDS011;52058;49.822;6.754;2023-07-30T08:35:13;4.38;;;1.35;;
65459;SDS011;52058;49.822;6.754;2023-07-30T08:37:40;3.33;;;1.20;;
65459;SDS011;52058;49.822;6.754;2023-07-30T08:40:07;3.22;;;0.88;;
65459;SDS011;52058;49.822;6.754;2023-07-30T08:42:35;3.20;;;1.00;;
65459;SDS011;52058;49.822;6.754;2023-07-30T08:45:02;3.20;;;0.98;;
65459;SDS011;52058;49.822;6.754;2023-07-30T08:47:33;3.83;;;1.20;;
65459;SDS011;52058;49.822;6.754;2023-07-30T08:50:00;3.17;;;1.08;;
65459;SDS011;52058;49.822;6.754;2023-07-30T08:52:26;4.57;;;1.38;;
65459;SDS011;52058;49.822;6.754;2023-07-30T08:54:55;6.22;;;1.55;;
65459;SDS011;52058;49.822;6.754;2023-07-30T08:57:25;5.65;;;1.58;;
65459;SDS011;52058;49.822;6.754;2023-07-30T08:59:57;5.95;;;1.55;;
65459;SDS011;52058;49.822;6.754;2023-07-30T09:02:30;3.83;;;1.30;;
65459;SDS011;52058;49.822;6.754;2023-07-30T09:07:28;2.00;;;1.25;;
65459;SDS011;52058;49.822;6.754;2023-07-30T09:09:55;3.90;;;1.27;;
65459;SDS011;52058;49.822;6.754;2023-07-30T09:12:25;3.67;;;1.42;;
65459;SDS011;52058;49.822;6.754;2023-07-30T09:14:52;4.10;;;1.27;;
65459;SDS011;52058;49.822;6.754;2023-07-30T09:17:19;5.82;;;1.83;;
65459;SDS011;52058;49.822;6.754;2023-07-30T09:19:45;3.42;;;1.40;;
65459;SDS011;52058;49.822;6.754;2023-07-30T09:22:14;7.35;;;1.30;;
65459;SDS011;52058;49.822;6.754;2023-07-30T09:24:46;3.00;;;1.30;;
65459;SDS011;52058;49.822;6.754;2023-07-30T09:27:12;5.53;;;1.38;;
65459;SDS011;52058;49.822;6.754;2023-07-30T09:29:41;3.83;;;1.38;;
65459;SDS011;52058;49.822;6.754;2023-07-30T09:32:16;3.28;;;1.23;;
65459;SDS011;52058;49.822;6.754;2023-07-30T09:34:44;4.72;;;1.23;;
65459;SDS011;52058;49.822;6.754;2023-07-30T09:37:11;3.42;;;1.17;;
65459;SDS011;52058;49.822;6.754;2023-07-30T09:39:39;2.67;;;1.35;;
65459;SDS011;52058;49.822;6.754;2023-07-30T09:42:06;3.33;;;1.38;;
65459;SDS011;52058;49.822;6.754;2023-07-30T09:44:33;3.88;;;1.25;;
65459;SDS011;52058;49.822;6.754;2023-07-30T09:47:02;5.28;;;1.40;;
65459;SDS011;52058;49.822;6.754;2023-07-30T09:49:30;3.90;;;1.80;;
65459;SDS011;52058;49.822;6.754;2023-07-30T09:51:56;2.53;;;1.20;;
65459;SDS011;52058;49.822;6.754;2023-07-30T09:54:24;1.17;;;1.02;;
65459;SDS011;52058;49.822;6.754;2023-07-30T09:56:51;2.25;;;1.38;;
65459;SDS011;52058;49.822;6.754;2023-07-30T09:59:18;5.60;;;1.20;;
65459;SDS011;52058;49.822;6.754;2023-07-30T10:01:45;3.78;;;1.90;;
65459;SDS011;52058;49.822;6.754;2023-07-30T10:04:14;4.07;;;1.40;;
65459;SDS011;52058;49.822;6.754;2023-07-30T10:06:42;5.78;;;1.50;;
65459;SDS011;52058;49.822;6.754;2023-07-30T10:09:12;5.40;;;1.30;;
65459;SDS011;52058;49.822;6.754;2023-07-30T10:11:41;3.53;;;1.75;;
65459;SDS011;52058;49.822;6.754;2023-07-30T10:14:11;2.33;;;1.13;;
65459;SDS011;52058;49.822;6.754;2023-07-30T10:16:39;3.67;;;1.20;;
65459;SDS011;52058;49.822;6.754;2023-07-30T10:19:05;4.55;;;1.33;;
65459;SDS011;52058;49.822;6.754;2023-07-30T10:21:32;3.25;;;1.10;;
65459;SDS011;52058;49.822;6.754;2023-07-30T10:24:00;3.33;;;1.30;;
65459;SDS011;52058;49.822;6.754;2023-07-30T10:26:28;4.82;;;1.52;;
65459;SDS011;52058;49.822;6.754;2023-07-30T10:29:15;3.78;;;1.90;;
65459;SDS011;52058;49.822;6.754;2023-07-30T10:31:43;3.72;;;1.17;;
65459;SDS011;52058;49.822;6.754;2023-07-30T10:34:13;3.72;;;1.63;;
65459;SDS011;52058;49.822;6.754;2023-07-30T10:36:41;4.40;;;1.40;;
65459;SDS011;52058;49.822;6.754;2023-07-30T10:39:13;3.60;;;1.15;;
65459;SDS011;52058;49.822;6.754;2023-07-30T10:41:42;2.55;;;1.30;;
65459;SDS011;52058;49.822;6.754;2023-07-30T10:44:19;4.47;;;1.50;;
65459;SDS011;52058;49.822;6.754;2023-07-30T10:46:48;2.78;;;1.35;;
65459;SDS011;52058;49.822;6.754;2023-07-30T10:49:15;3.70;;;1.38;;
65459;SDS011;52058;49.822;6.754;2023-07-30T10:51:41;2.75;;;1.30;;
65459;SDS011;52058;49.822;6.754;2023-07-30T10:54:08;3.47;;;1.60;;
65459;SDS011;52058;49.822;6.754;2023-07-30T10:56:35;5.05;;;1.65;;
65459;SDS011;52058;49.822;6.754;2023-07-30T10:59:03;4.45;;;1.20;;
65459;SDS011;52058;49.822;6.754;2023-07-30T11:01:31;3.53;;;1.40;;
65459;SDS011;52058;49.822;6.754;2023-07-30T11:04:05;4.45;;;1.33;;
65459;SDS011;52058;49.822;6.754;2023-07-30T11:06:32;4.72;;;1.30;;
65459;SDS011;52058;49.822;6.754;2023-07-30T11:08:58;3.05;;;1.30;;
65459;SDS011;52058;49.822;6.754;2023-07-30T11:11:25;4.47;;;1.30;;
65459;SDS011;52058;49.822;6.754;2023-07-30T11:13:52;3.90;;;1.27;;
65459;SDS011;52058;49.822;6.754;2023-07-30T11:16:18;3.65;;;1.55;;
65459;SDS011;52058;49.822;6.754;2023-07-30T11:18:46;3.35;;;1.20;;
65459;SDS011;52058;49.822;6.754;2023-07-30T11:21:14;3.95;;;1.25;;
65459;SDS011;52058;49.822;6.754;2023-07-30T11:23:42;2.90;;;1.10;;
65459;SDS011;52058;49.822;6.754;2023-07-30T11:26:13;2.38;;;1.08;;
65459;SDS011;52058;49.822;6.754;2023-07-30T11:28:41;2.47;;;1.00;;
65459;SDS011;52058;49.822;6.754;2023-07-30T11:31:08;3.47;;;1.23;;
65459;SDS011;52058;49.822;6.754;2023-07-30T11:33:36;2.83;;;1.20;;
65459;SDS011;52058;49.822;6.754;2023-07-30T11:36:06;4.43;;;1.40;;
65459;SDS011;52058;49.822;6.754;2023-07-30T11:38:34;4.45;;;1.17;;
65459;SDS011;52058;49.822;6.754;2023-07-30T11:41:01;4.05;;;1.30;;
65459;SDS011;52058;49.822;6.754;2023-07-30T11:43:28;2.25;;;1.30;;
65459;SDS011;52058;49.822;6.754;2023-07-30T11:46:08;4.60;;;1.15;;
65459;SDS011;52058;49.822;6.754;2023-07-30T11:48:36;4.95;;;1.50;;
65459;SDS011;52058;49.822;6.754;2023-07-30T11:51:03;5.25;;;1.25;;
65459;SDS011;52058;49.822;6.754;2023-07-30T11:53:47;2.60;;;1.10;;
65459;SDS011;52058;49.822;6.754;2023-07-30T11:56:18;3.40;;;1.20;;
65459;SDS011;52058;49.822;6.754;2023-07-30T11:58:48;3.70;;;1.30;;
65459;SDS011;52058;49.822;6.754;2023-07-30T12:01:15;3.50;;;1.40;;
65459;SDS011;52058;49.822;6.754;2023-07-30T12:03:42;3.65;;;1.23;;
65459;SDS011;52058;49.822;6.754;2023-07-30T12:06:09;5.07;;;1.30;;
65459;SDS011;52058;49.822;6.754;2023-07-30T12:08:37;6.43;;;1.67;;
65459;SDS011;52058;49.822;6.754;2023-07-30T12:11:05;3.60;;;1.20;;
65459;SDS011;52058;49.822;6.754;2023-07-30T12:13:33;3.63;;;1.40;;
65459;SDS011;52058;49.822;6.754;2023-07-30T12:16:01;4.57;;;1.20;;
65459;SDS011;52058;49.822;6.754;2023-07-30T12:18:28;2.53;;;1.30;;
65459;SDS011;52058;49.822;6.754;2023-07-30T12:20:55;3.08;;;1.13;;
65459;SDS011;52058;49.822;6.754;2023-07-30T12:23:23;4.43;;;1.40;;
65459;SDS011;52058;49.822;6.754;2023-07-30T12:25:49;3.53;;;1.27;;
65459;SDS011;52058;49.822;6.754;2023-07-30T12:28:18;4.32;;;1.25;;
65459;SDS011;52058;49.822;6.754;2023-07-30T12:30:44;2.28;;;1.10;;
65459;SDS011;52058;49.822;6.754;2023-07-30T12:33:11;4.32;;;1.30;;
65459;SDS011;52058;49.822;6.754;2023-07-30T12:35:38;4.28;;;1.30;;
65459;SDS011;52058;49.822;6.754;2023-07-30T12:38:04;2.40;;;1.02;;
65459;SDS011;52058;49.822;6.754;2023-07-30T12:40:31;4.05;;;1.25;;
65459;SDS011;52058;49.822;6.754;2023-07-30T12:42:59;3.03;;;1.27;;
65459;SDS011;52058;49.822;6.754;2023-07-30T12:45:28;3.75;;;1.40;;
65459;SDS011;52058;49.822;6.754;2023-07-30T12:47:55;5.22;;;1.42;;
65459;SDS011;52058;49.822;6.754;2023-07-30T12:50:21;3.42;;;1.05;;
65459;SDS011;52058;49.822;6.754;2023-07-30T12:52:48;4.18;;;1.30;;
65459;SDS011;52058;49.822;6.754;2023-07-30T12:55:15;3.90;;;1.52;;
65459;SDS011;52058;49.822;6.754;2023-07-30T12:57:42;3.42;;;1.20;;
65459;SDS011;52058;49.822;6.754;2023-07-30T13:00:08;3.38;;;1.45;;
65459;SDS011;52058;49.822;6.754;2023-07-30T13:02:37;3.45;;;1.23;;
65459;SDS011;52058;49.822;6.754;2023-07-30T13:05:04;2.20;;;1.40;;
65459;SDS011;52058;49.822;6.754;2023-07-30T13:07:30;3.53;;;1.45;;
65459;SDS011;52058;49.822;6.754;2023-07-30T13:10:03;3.08;;;1.25;;
65459;SDS011;52058;49.822;6.754;2023-07-30T13:12:31;3.88;;;1.20;;
65459;SDS011;52058;49.822;6.754;2023-07-30T13:14:58;2.30;;;1.08;;
65459;SDS011;52058;49.822;6.754;2023-07-30T13:17:24;4.40;;;1.35;;
65459;SDS011;52058;49.822;6.754;2023-07-30T13:19:52;3.33;;;1.50;;
65459;SDS011;52058;49.822;6.754;2023-07-30T13:22:19;2.38;;;1.08;;
65459;SDS011;52058;49.822;6.754;2023-07-30T13:24:45;3.92;;;1.13;;
65459;SDS011;52058;49.822;6.754;2023-07-30T13:27:12;2.83;;;1.20;;
65459;SDS011;52058;49.822;6.754;2023-07-30T13:29:39;2.35;;;1.27;;
65459;SDS011;52058;49.822;6.754;2023-07-30T13:32:05;3.75;;;1.30;;
65459;SDS011;52058;49.822;6.754;2023-07-30T13:34:32;3.15;;;1.35;;
65459;SDS011;52058;49.822;6.754;2023-07-30T13:37:00;3.28;;;1.20;;
65459;SDS011;52058;49.822;6.754;2023-07-30T13:39:27;3.65;;;1.08;;
65459;SDS011;52058;49.822;6.754;2023-07-30T13:41:53;3.20;;;1.15;;
65459;SDS011;52058;49.822;6.754;2023-07-30T13:44:20;2.70;;;1.08;;
65459;SDS011;52058;49.822;6.754;2023-07-30T13:46:46;3.13;;;1.00;;
65459;SDS011;52058;49.822;6.754;2023-07-30T13:49:13;3.53;;;1.10;;
65459;SDS011;52058;49.822;6.754;2023-07-30T13:51:40;3.38;;;1.00;;
65459;SDS011;52058;49.822;6.754;2023-07-30T13:54:08;4.35;;;1.52;;
65459;SDS011;52058;49.822;6.754;2023-07-30T13:56:35;1.83;;;1.00;;
65459;SDS011;52058;49.822;6.754;2023-07-30T13:59:03;3.00;;;1.30;;
65459;SDS011;52058;49.822;6.754;2023-07-30T14:01:30;2.38;;;0.98;;
65459;SDS011;52058;49.822;6.754;2023-07-30T14:03:56;3.88;;;1.10;;
65459;SDS011;52058;49.822;6.754;2023-07-30T14:06:23;2.75;;;1.33;;
65459;SDS011;52058;49.822;6.754;2023-07-30T14:08:50;2.70;;;1.20;;
65459;SDS011;52058;49.822;6.754;2023-07-30T14:11:18;5.13;;;1.23;;
65459;SDS011;52058;49.822;6.754;2023-07-30T14:13:44;3.95;;;1.17;;
65459;SDS011;52058;49.822;6.754;2023-07-30T14:16:11;2.10;;;1.50;;
65459;SDS011;52058;49.822;6.754;2023-07-30T14:18:38;1.70;;;0.98;;
65459;SDS011;52058;49.822;6.754;2023-07-30T14:21:05;2.80;;;1.23;;
65459;SDS011;52058;49.822;6.754;2023-07-30T14:23:31;3.60;;;1.30;;
65459;SDS011;52058;49.822;6.754;2023-07-30T14:25:58;4.78;;;1.30;;
65459;SDS011;52058;49.822;6.754;2023-07-30T14:28:26;3.58;;;1.13;;
65459;SDS011;52058;49.822;6.754;2023-07-30T14:30:53;1.98;;;1.17;;
65459;SDS011;52058;49.822;6.754;2023-07-30T14:33:19;3.15;;;1.30;;
65459;SDS011;52058;49.822;6.754;2023-07-30T14:35:46;4.10;;;1.05;;
65459;SDS011;52058;49.822;6.754;2023-07-30T14:38:13;4.65;;;1.08;;
65459;SDS011;52058;49.822;6.754;2023-07-30T14:40:40;2.88;;;1.17;;
65459;SDS011;52058;49.822;6.754;2023-07-30T14:43:09;2.75;;;1.00;;
65459;SDS011;52058;49.822;6.754;2023-07-30T14:45:37;1.90;;;1.20;;
65459;SDS011;52058;49.822;6.754;2023-07-30T14:48:03;4.43;;;1.25;;
65459;SDS011;52058;49.822;6.754;2023-07-30T14:50:30;1.85;;;1.15;;